createdAt,value
2022-10-05T00:01:33.968Z,66.55
2022-10-05T00:04:23.331Z,66.24
2022-10-05T00:06:58.794Z,66.69
2022-10-05T00:09:31.414Z,66.67
2022-10-05T00:12:02.722Z,66.19
2022-10-05T00:14:35.852Z,66.48
2022-10-05T00:17:06.404Z,66.89
2022-10-05T00:19:39.150Z,66.51
2022-10-05T00:22:20.398Z,66.43
2022-10-05T00:24:52.807Z,66.58
2022-10-05T00:27:27.216Z,66.90
2022-10-05T00:29:59.384Z,67.02
2022-10-05T00:32:29.215Z,67.10
2022-10-05T00:34:59.037Z,67.41
2022-10-05T00:37:28.779Z,67.23
2022-10-05T00:39:58.593Z,67.52
2022-10-05T00:42:31.072Z,67.36
2022-10-05T00:45:06.552Z,67.04
2022-10-05T00:47:45.579Z,67.47
2022-10-05T00:50:18.782Z,68.58
2022-10-05T00:53:09.336Z,68.58
2022-10-05T00:55:56.664Z,68.26
2022-10-05T00:58:46.704Z,68.19
2022-10-05T01:01:19.782Z,67.88
2022-10-05T01:04:10.628Z,68.18
2022-10-05T01:06:58.122Z,68.36
2022-10-05T01:09:36.586Z,67.98
2022-10-05T01:12:11.053Z,67.40
2022-10-05T01:15:03.200Z,67.40
2022-10-05T01:17:41.872Z,67.98
2022-10-05T01:20:28.638Z,68.21
2022-10-05T01:23:16.244Z,68.21
2022-10-05T01:25:58.001Z,68.75
2022-10-05T01:28:30.831Z,69.26
2022-10-05T01:31:09.250Z,68.74
2022-10-05T01:34:01.304Z,68.73
2022-10-05T01:36:36.667Z,69.25
2022-10-05T01:39:18.247Z,68.91
2022-10-05T01:41:56.752Z,68.95
2022-10-05T01:44:33.060Z,69.24
2022-10-05T01:47:05.588Z,69.03
2022-10-05T01:49:46.951Z,69.30
2022-10-05T01:52:19.726Z,68.88
2022-10-05T01:57:43.132Z,68.81
2022-10-05T02:00:17.846Z,68.81
2022-10-05T02:02:50.831Z,69.18
2022-10-05T02:05:29.406Z,69.18
2022-10-05T02:08:20.300Z,70.36
2022-10-05T02:10:53.358Z,70.80
2022-10-05T02:13:33.372Z,70.57
2022-10-05T02:16:06.560Z,70.57
2022-10-05T02:18:41.844Z,70.67
2022-10-05T02:21:11.826Z,71.22
2022-10-05T02:23:44.469Z,71.35
2022-10-05T02:26:14.348Z,71.30
2022-10-05T02:28:58.880Z,70.78
2022-10-05T02:31:50.802Z,70.60
2022-10-05T02:34:39.798Z,71.12
2022-10-05T02:37:38.414Z,71.50
2022-10-05T02:40:40.741Z,71.77
2022-10-05T02:43:19.403Z,72.27
2022-10-05T02:46:20.244Z,72.21
2022-10-05T02:48:53.545Z,72.14
2022-10-05T02:51:29.241Z,71.63
2022-10-05T02:54:13.607Z,72.11
2022-10-05T02:57:00.596Z,72.75
2022-10-05T02:59:42.262Z,72.10
2022-10-05T03:02:24.848Z,72.54
2022-10-05T03:05:17.852Z,72.06
2022-10-05T03:07:59.526Z,72.22
2022-10-05T03:10:35.506Z,71.79
2022-10-05T03:13:14.444Z,72.15
2022-10-05T03:15:52.798Z,71.36
2022-10-05T03:18:42.448Z,71.36
2022-10-05T03:21:34.118Z,71.83
2022-10-05T03:24:26.691Z,71.53
2022-10-05T03:27:02.299Z,71.21
2022-10-05T03:29:35.167Z,71.48
2022-10-05T03:32:19.228Z,72.02
2022-10-05T03:34:58.770Z,71.51
2022-10-05T03:37:34.421Z,71.96
2022-10-05T03:40:28.237Z,71.98
2022-10-05T03:43:24.774Z,71.51
2022-10-05T03:46:00.503Z,71.51
2022-10-05T03:48:33.710Z,71.50
2022-10-05T03:51:08.900Z,71.70
2022-10-05T03:53:41.697Z,72.08
2022-10-05T03:56:14.827Z,72.70
2022-10-05T03:58:54.255Z,72.28
2022-10-05T04:01:27.247Z,72.07
2022-10-05T04:04:00.007Z,71.71
2022-10-05T04:06:33.645Z,71.14
2022-10-05T04:09:07.096Z,71.43
2022-10-05T04:11:45.716Z,71.49
2022-10-05T04:14:36.314Z,71.63
2022-10-05T04:17:17.976Z,71.32
2022-10-05T04:19:57.003Z,70.83
2022-10-05T04:22:41.353Z,71.07
2022-10-05T04:25:20.389Z,70.81
2022-10-05T04:27:53.389Z,71.53
2022-10-05T04:30:23.331Z,71.53
2022-10-05T04:32:58.375Z,71.38
2022-10-05T04:35:35.688Z,70.68
2022-10-05T04:38:26.028Z,71.03
2022-10-05T04:41:21.431Z,71.08
2022-10-05T04:44:18.616Z,71.18
2022-10-05T04:47:06.752Z,71.26
2022-10-05T04:49:45.152Z,71.19
2022-10-05T04:52:34.231Z,72.32
2022-10-05T04:55:27.774Z,71.70
2022-10-05T04:58:06.517Z,72.54
2022-10-05T05:00:58.445Z,72.20
2022-10-05T05:03:37.710Z,72.58
2022-10-05T05:06:30.809Z,72.29
2022-10-05T05:09:12.246Z,71.76
2022-10-05T05:12:03.727Z,72.59
2022-10-05T05:14:43.152Z,72.57
2022-10-05T05:17:27.812Z,72.54
2022-10-05T05:20:06.351Z,73.03
2022-10-05T05:22:58.262Z,72.30
2022-10-05T05:25:40.127Z,72.25
2022-10-05T05:28:48.543Z,72.91
2022-10-05T05:31:19.584Z,72.88
2022-10-05T05:34:13.027Z,73.40
2022-10-05T05:36:51.641Z,73.55
2022-10-05T05:39:26.897Z,72.58
2022-10-05T05:42:05.968Z,72.62
2022-10-05T05:44:44.473Z,71.85
2022-10-05T05:47:18.559Z,71.66
2022-10-05T05:50:15.338Z,71.59
2022-10-05T05:52:56.545Z,72.31
2022-10-05T05:55:31.946Z,71.79
2022-10-05T05:58:08.357Z,71.15
2022-10-05T06:00:43.874Z,70.94
2022-10-05T06:03:17.218Z,70.94
2022-10-05T06:05:50.716Z,70.30
2022-10-05T06:08:26.366Z,70.58
2022-10-05T06:11:09.441Z,70.63
2022-10-05T06:13:41.634Z,70.97
2022-10-05T06:16:32.347Z,70.23
2022-10-05T06:19:08.717Z,69.84
2022-10-05T06:21:47.444Z,70.39
2022-10-05T06:24:25.929Z,70.27
2022-10-05T06:27:20.061Z,69.80
2022-10-05T06:30:09.229Z,70.01
2022-10-05T06:32:46.230Z,70.17
2022-10-05T06:35:40.859Z,70.27
2022-10-05T06:38:32.091Z,70.02
2022-10-05T06:41:10.734Z,70.02
2022-10-05T06:43:48.842Z,70.36
2022-10-05T06:46:32.316Z,70.89
2022-10-05T06:49:24.133Z,70.13
2022-10-05T06:52:29.236Z,71.06
2022-10-05T06:55:13.209Z,69.81
2022-10-05T06:58:00.040Z,69.49
2022-10-05T07:00:35.428Z,69.54
2022-10-05T07:03:39.187Z,70.09
2022-10-05T07:06:16.978Z,69.57
2022-10-05T07:09:04.606Z,69.08
2022-10-05T07:11:58.379Z,68.46
2022-10-05T07:14:38.056Z,68.46
2022-10-05T07:17:11.115Z,68.69
2022-10-05T07:20:09.134Z,68.74
2022-10-05T07:22:50.868Z,68.91
2022-10-05T07:25:24.042Z,68.60
2022-10-05T07:28:02.690Z,68.57
2022-10-05T07:30:35.360Z,68.58
2022-10-05T07:33:20.459Z,67.99
2022-10-05T07:36:25.518Z,67.89
2022-10-05T07:39:04.005Z,68.13
2022-10-05T07:41:40.213Z,68.00
2022-10-05T07:44:29.401Z,67.55
2022-10-05T07:47:03.244Z,67.43
2022-10-05T07:49:42.168Z,68.20
2022-10-05T07:52:32.396Z,67.89
2022-10-05T07:55:11.829Z,67.55
2022-10-05T07:58:08.523Z,66.96
2022-10-05T08:01:09.476Z,67.10
2022-10-05T08:04:03.570Z,66.48
2022-10-05T08:06:48.793Z,65.85
2022-10-05T08:09:39.836Z,65.73
2022-10-05T08:12:35.759Z,65.55
2022-10-05T08:15:14.755Z,65.57
2022-10-05T08:17:55.806Z,65.42
2022-10-05T08:20:28.631Z,65.47
2022-10-05T08:23:04.236Z,65.15
2022-10-05T08:25:45.979Z,65.91
2022-10-05T08:28:30.718Z,65.45
2022-10-05T08:31:05.774Z,65.05
2022-10-05T08:33:41.379Z,64.70
2022-10-05T08:36:17.551Z,63.62
2022-10-05T08:38:48.760Z,64.37
2022-10-05T08:41:38.486Z,64.37
2022-10-05T08:44:33.591Z,64.41
2022-10-05T08:47:18.021Z,63.65
2022-10-05T08:50:10.083Z,63.85
2022-10-05T08:53:00.683Z,64.24
2022-10-05T08:55:36.051Z,63.91
2022-10-05T08:58:22.060Z,63.76
2022-10-05T09:01:06.832Z,63.45
2022-10-05T09:04:14.269Z,62.97
2022-10-05T09:06:57.898Z,63.28
2022-10-05T09:09:33.409Z,62.85
2022-10-05T09:12:26.960Z,62.96
2022-10-05T09:15:25.756Z,62.44
2022-10-05T09:17:56.131Z,63.16
2022-10-05T09:20:54.056Z,62.42
2022-10-05T09:23:29.748Z,61.90
2022-10-05T09:26:35.368Z,60.95
2022-10-05T09:29:30.129Z,60.85
2022-10-05T09:32:29.868Z,61.49
2022-10-05T09:35:04.776Z,61.20
2022-10-05T09:37:52.415Z,60.98
2022-10-05T09:40:53.269Z,60.93
2022-10-05T09:43:42.278Z,60.55
2022-10-05T09:46:24.875Z,60.26
2022-10-05T09:49:12.464Z,60.59
2022-10-05T09:51:51.084Z,60.10
2022-10-05T09:54:40.753Z,60.22
2022-10-05T09:57:48.166Z,60.22
2022-10-05T10:00:37.178Z,59.17
2022-10-05T10:03:18.731Z,60.07
2022-10-05T10:05:54.085Z,60.07
2022-10-05T10:08:35.172Z,59.87
2022-10-05T10:11:24.033Z,59.26
2022-10-05T10:13:56.905Z,59.23
2022-10-05T10:16:54.554Z,57.47
2022-10-05T10:19:29.942Z,58.31
2022-10-05T10:22:17.561Z,58.20
2022-10-05T10:24:56.047Z,58.20
2022-10-05T10:27:37.388Z,58.74
2022-10-05T10:30:28.030Z,58.14
2022-10-05T10:33:17.437Z,58.21
2022-10-05T10:36:07.072Z,58.38
2022-10-05T10:38:42.775Z,57.99
2022-10-05T10:41:20.900Z,57.84
2022-10-05T10:44:18.820Z,57.95
2022-10-05T10:47:13.929Z,58.63
2022-10-05T10:49:46.706Z,58.63
2022-10-05T10:52:52.445Z,58.57
2022-10-05T10:55:50.721Z,57.88
2022-10-05T10:58:34.969Z,57.88
2022-10-05T11:01:28.241Z,58.14
2022-10-05T11:04:05.965Z,57.77
2022-10-05T11:06:41.657Z,57.55
2022-10-05T11:09:20.525Z,57.08
2022-10-05T11:12:11.085Z,57.72
2022-10-05T11:14:58.796Z,58.13
2022-10-05T11:17:52.659Z,58.04
2022-10-05T11:20:30.935Z,57.57
2022-10-05T11:23:20.274Z,57.54
2022-10-05T11:26:09.490Z,58.10
2022-10-05T11:28:58.278Z,58.45
2022-10-05T11:31:38.642Z,57.79
2022-10-05T11:34:21.782Z,57.85
2022-10-05T11:37:27.301Z,57.43
2022-10-05T11:40:18.225Z,57.97
2022-10-05T11:43:23.897Z,57.44
2022-10-05T11:45:56.857Z,57.24
2022-10-05T11:48:43.721Z,56.91
2022-10-05T11:51:26.465Z,56.49
2022-10-05T11:54:05.516Z,56.93
2022-10-05T11:56:56.341Z,56.75
2022-10-05T11:59:44.580Z,56.75
2022-10-05T12:02:37.812Z,57.07
2022-10-05T12:05:22.848Z,57.07
2022-10-05T12:08:13.410Z,56.90
2022-10-05T12:10:51.852Z,56.94
2022-10-05T12:13:33.611Z,56.07
2022-10-05T12:16:27.660Z,56.03
2022-10-05T12:19:03.150Z,56.03
2022-10-05T12:21:44.661Z,55.34
2022-10-05T12:24:32.051Z,55.02
2022-10-05T12:27:07.674Z,54.74
2022-10-05T12:29:58.567Z,55.20
2022-10-05T12:32:33.935Z,54.24
2022-10-05T12:35:30.040Z,53.74
2022-10-05T12:37:56.107Z,53.44
2022-10-05T12:40:42.670Z,53.35
2022-10-05T12:43:48.581Z,53.43
2022-10-05T12:46:27.302Z,53.28
2022-10-05T12:49:20.820Z,53.66
2022-10-05T12:52:02.442Z,52.64
2022-10-05T12:54:37.667Z,52.90
2022-10-05T12:57:30.697Z,52.26
2022-10-05T13:00:05.931Z,52.55
2022-10-05T13:02:42.989Z,53.18
2022-10-05T13:05:21.214Z,53.18
2022-10-05T13:08:13.061Z,53.12
2022-10-05T13:10:48.323Z,52.89
2022-10-05T13:13:35.991Z,52.77
2022-10-05T13:16:19.841Z,51.74
2022-10-05T13:18:59.025Z,51.92
2022-10-05T13:21:38.485Z,51.77
2022-10-05T13:24:24.578Z,51.78
2022-10-05T13:27:04.170Z,51.45
2022-10-05T13:29:39.755Z,51.88
2022-10-05T13:32:15.141Z,50.72
2022-10-05T13:35:10.617Z,50.72
2022-10-05T13:37:50.424Z,50.30
2022-10-05T13:40:40.593Z,50.57
2022-10-05T13:43:25.303Z,50.79
2022-10-05T13:46:18.744Z,51.43
2022-10-05T13:48:54.622Z,51.25
2022-10-05T13:51:29.838Z,51.24
2022-10-05T13:54:35.824Z,51.03
2022-10-05T13:57:21.049Z,51.00
2022-10-05T13:59:56.575Z,50.80
2022-10-05T14:02:34.715Z,51.83
2022-10-05T14:05:25.253Z,52.38
2022-10-05T14:08:00.772Z,52.47
2022-10-05T14:10:37.403Z,53.05
2022-10-05T14:13:28.038Z,53.10
2022-10-05T14:16:15.953Z,53.58
2022-10-05T14:18:54.728Z,52.91
2022-10-05T14:21:27.737Z,52.71
2022-10-05T14:23:59.330Z,52.46
2022-10-05T14:26:34.888Z,52.46
2022-10-05T14:29:19.322Z,52.40
2022-10-05T14:31:58.121Z,52.35
2022-10-05T14:34:39.251Z,52.60
2022-10-05T14:37:20.492Z,53.09
2022-10-05T14:39:52.580Z,53.04
2022-10-05T14:42:27.753Z,53.54
2022-10-05T14:45:15.221Z,53.82
2022-10-05T14:48:11.544Z,54.01
2022-10-05T14:50:53.213Z,54.57
2022-10-05T14:53:28.608Z,54.48
2022-10-05T14:56:18.542Z,54.48
2022-10-05T14:59:26.042Z,53.98
2022-10-05T15:02:15.732Z,53.98
2022-10-05T15:04:54.478Z,54.68
2022-10-05T15:07:30.211Z,54.32
2022-10-05T15:10:13.807Z,54.88
2022-10-05T15:12:48.187Z,55.02
2022-10-05T15:15:38.806Z,55.27
2022-10-05T15:18:31.962Z,54.93
2022-10-05T15:21:14.796Z,55.13
2022-10-05T15:23:53.672Z,55.42
2022-10-05T15:26:26.451Z,55.07
2022-10-05T15:29:05.147Z,55.04
2022-10-05T15:31:52.781Z,55.00
2022-10-05T15:34:37.398Z,54.67
2022-10-05T15:37:16.699Z,53.97
2022-10-05T15:39:55.375Z,54.12
2022-10-05T15:42:28.211Z,54.24
2022-10-05T15:45:23.500Z,53.74
2022-10-05T15:48:08.255Z,54.17
2022-10-05T15:50:46.867Z,54.12
2022-10-05T15:53:24.795Z,54.38
2022-10-05T15:56:06.466Z,54.56
2022-10-05T15:58:47.985Z,54.60
2022-10-05T16:01:35.852Z,54.11
2022-10-05T16:04:17.635Z,53.38
2022-10-05T16:07:21.530Z,53.23
2022-10-05T16:09:59.428Z,53.96
2022-10-05T16:12:57.769Z,54.25
2022-10-05T16:15:36.109Z,54.40
2022-10-05T16:18:12.984Z,54.68
2022-10-05T16:21:02.129Z,54.58
2022-10-05T16:23:59.354Z,54.37
2022-10-05T16:26:40.895Z,54.86
2022-10-05T16:29:25.608Z,55.46
2022-10-05T16:32:09.936Z,55.23
2022-10-05T16:35:03.029Z,55.26
2022-10-05T16:37:41.742Z,55.97
2022-10-05T16:40:34.501Z,55.95
2022-10-05T16:43:37.281Z,56.28
2022-10-05T16:46:27.554Z,55.98
2022-10-05T16:49:00.106Z,56.49
2022-10-05T16:51:47.681Z,56.16
2022-10-05T16:54:32.095Z,56.79
2022-10-05T16:57:13.775Z,56.78
2022-10-05T17:00:14.960Z,56.95
2022-10-05T17:02:53.296Z,56.84
2022-10-05T17:05:51.178Z,57.28
2022-10-05T17:08:40.385Z,56.58
2022-10-05T17:11:28.164Z,57.18
2022-10-05T17:14:06.739Z,56.91
2022-10-05T17:16:45.233Z,57.32
2022-10-05T17:19:45.980Z,58.01
2022-10-05T17:22:30.506Z,57.73
2022-10-05T17:25:08.891Z,57.61
2022-10-05T17:27:53.925Z,58.28
2022-10-05T17:30:32.222Z,57.89
2022-10-05T17:33:19.711Z,58.24
2022-10-05T17:35:55.169Z,58.59
2022-10-05T17:38:38.013Z,57.99
2022-10-05T17:41:22.442Z,58.33
2022-10-05T17:44:18.616Z,58.35
2022-10-05T17:47:03.975Z,58.52
2022-10-05T17:49:50.342Z,58.14
2022-10-05T17:52:45.682Z,58.33
2022-10-05T17:55:37.755Z,58.72
2022-10-05T17:58:28.423Z,58.75
2022-10-05T18:01:01.439Z,58.33
2022-10-05T18:03:40.888Z,58.29
2022-10-05T18:06:26.449Z,58.29
2022-10-05T18:09:19.989Z,58.40
2022-10-05T18:12:20.488Z,58.79
2022-10-05T18:15:10.655Z,58.27
2022-10-05T18:17:46.510Z,58.87
2022-10-05T18:20:32.979Z,58.80
2022-10-05T18:23:11.241Z,58.84
2022-10-05T18:25:55.749Z,59.08
2022-10-05T18:28:29.245Z,58.68
2022-10-05T18:31:21.356Z,58.88
2022-10-05T18:34:08.928Z,58.79
2022-10-05T18:37:17.814Z,58.75
2022-10-05T18:40:14.552Z,58.74
2022-10-05T18:43:01.940Z,59.15
2022-10-05T18:45:35.315Z,59.05
2022-10-05T18:48:24.282Z,59.72
2022-10-05T18:51:00.291Z,59.48
2022-10-05T18:53:44.420Z,59.93
2022-10-05T18:56:22.865Z,59.67
2022-10-05T18:59:14.762Z,59.67
2022-10-05T19:01:59.335Z,59.36
2022-10-05T19:04:43.813Z,60.62
2022-10-05T19:07:25.518Z,60.01
2022-10-05T19:10:08.548Z,60.01
2022-10-05T19:15:32.251Z,60.15
2022-10-05T19:18:07.186Z,60.15
2022-10-05T19:20:40.019Z,60.90
2022-10-05T19:23:35.080Z,61.62
2022-10-05T19:26:32.622Z,61.62
2022-10-05T19:29:27.441Z,60.85
2022-10-05T19:32:00.219Z,62.00
2022-10-05T19:34:42.187Z,63.58
2022-10-05T19:37:31.672Z,63.43
2022-10-05T19:40:19.317Z,63.92
2022-10-05T19:43:18.863Z,64.67
2022-10-05T19:45:58.396Z,64.88
2022-10-05T19:48:43.651Z,64.45
2022-10-05T19:51:16.536Z,64.76
2022-10-05T19:53:50.228Z,64.42
2022-10-05T19:56:28.627Z,64.93
2022-10-05T19:59:01.024Z,64.92
2022-10-05T20:01:36.906Z,64.27
2022-10-05T20:04:09.371Z,64.42
2022-10-05T20:06:39.623Z,64.45
2022-10-05T20:09:22.561Z,65.16
2022-10-05T20:11:53.710Z,64.97
2022-10-05T20:14:32.041Z,66.15
2022-10-05T20:17:45.353Z,65.88
2022-10-05T20:20:32.637Z,66.71
2022-10-05T20:23:22.826Z,67.49
2022-10-05T20:26:10.810Z,67.85
2022-10-05T20:28:40.742Z,68.06
2022-10-05T20:31:10.594Z,68.27
2022-10-05T20:33:40.446Z,68.40
2022-10-05T20:36:11.235Z,68.14
2022-10-05T20:38:41.388Z,68.72
2022-10-05T20:41:11.082Z,69.04
2022-10-05T20:43:40.797Z,68.77
2022-10-05T20:46:11.775Z,69.83
2022-10-05T20:48:41.563Z,69.57
2022-10-05T20:51:11.336Z,69.26
2022-10-05T20:53:41.071Z,69.23
2022-10-05T20:56:11.422Z,69.62
2022-10-05T20:58:43.136Z,69.71
2022-10-05T21:01:23.113Z,69.71
2022-10-05T21:03:54.332Z,68.43
2022-10-05T21:06:28.446Z,62.71
2022-10-05T21:08:58.158Z,62.23
2022-10-05T21:11:28.579Z,64.47
2022-10-05T21:14:00.988Z,65.06
2022-10-05T21:16:30.267Z,66.95
2022-10-05T21:19:00.006Z,70.00
2022-10-05T21:21:30.034Z,72.18
2022-10-05T21:24:00.623Z,74.60
2022-10-05T21:26:30.588Z,75.83
2022-10-05T21:29:02.372Z,77.34
2022-10-05T21:31:32.368Z,78.37
2022-10-05T21:34:02.082Z,78.58
2022-10-05T21:36:32.586Z,78.58
2022-10-05T21:39:02.419Z,78.70
2022-10-05T21:41:32.146Z,79.23
2022-10-05T21:44:02.025Z,78.91
2022-10-05T21:46:31.752Z,79.92
2022-10-05T21:49:01.770Z,80.88
2022-10-05T21:51:31.500Z,79.92
2022-10-05T21:54:04.630Z,79.71
2022-10-05T21:56:37.110Z,78.94
2022-10-05T21:59:09.686Z,78.46
2022-10-05T22:01:39.595Z,79.26
2022-10-05T22:04:11.120Z,78.99
2022-10-05T22:06:40.877Z,79.71
2022-10-05T22:09:10.923Z,78.60
2022-10-05T22:11:40.811Z,78.82
2022-10-05T22:14:11.721Z,78.62
2022-10-05T22:16:42.623Z,79.09
2022-10-05T22:19:15.523Z,77.63
2022-10-05T22:21:45.466Z,77.50
2022-10-05T22:24:15.160Z,77.36
2022-10-05T22:26:47.465Z,77.36
2022-10-05T22:29:18.234Z,77.48
2022-10-05T22:31:49.018Z,77.46
2022-10-05T22:34:19.265Z,78.26
2022-10-05T22:36:49.745Z,77.59
2022-10-05T22:39:19.597Z,79.66
2022-10-05T22:41:50.394Z,78.46
2022-10-05T22:44:20.673Z,78.38
2022-10-05T22:46:50.697Z,78.57
2022-10-05T22:49:20.447Z,78.93
2022-10-05T22:51:50.978Z,78.96
2022-10-05T22:54:20.843Z,79.91
2022-10-05T22:56:50.577Z,78.93
2022-10-05T22:59:20.622Z,79.27
2022-10-05T23:01:50.434Z,79.34
2022-10-05T23:04:20.303Z,79.81
2022-10-05T23:06:50.107Z,81.02
2022-10-05T23:09:19.845Z,80.51
2022-10-05T23:11:51.219Z,79.22
2022-10-05T23:14:21.493Z,78.82
2022-10-05T23:16:51.787Z,79.86
2022-10-05T23:19:22.519Z,79.81
2022-10-05T23:21:52.314Z,80.05
2022-10-05T23:24:22.073Z,80.38
2022-10-05T23:26:51.826Z,80.00
2022-10-05T23:29:21.556Z,79.45
2022-10-05T23:31:51.291Z,79.66
2022-10-05T23:34:20.993Z,78.88
2022-10-05T23:36:50.738Z,77.25
2022-10-05T23:39:20.539Z,77.25
2022-10-05T23:41:50.363Z,76.92
2022-10-05T23:44:20.489Z,76.94
2022-10-05T23:46:50.311Z,76.94
2022-10-05T23:49:20.110Z,76.90
2022-10-05T23:51:49.853Z,76.33
2022-10-05T23:54:19.617Z,75.51
2022-10-05T23:56:49.656Z,76.32
2022-10-05T23:59:19.394Z,76.12
